createdAt,value
2023-03-29T00:00:50.957Z,1869.00
2023-03-29T00:01:50.958Z,1869.00
2023-03-29T00:02:51.024Z,1867.00
2023-03-29T00:03:51.064Z,1863.00
2023-03-29T00:04:51.730Z,1856.00
2023-03-29T00:05:51.033Z,1853.00
2023-03-29T00:06:50.989Z,1850.00
2023-03-29T00:07:50.996Z,1848.00
2023-03-29T00:08:51.014Z,1846.00
2023-03-29T00:09:51.052Z,1842.00
2023-03-29T00:10:51.005Z,1839.00
2023-03-29T00:11:51.019Z,1840.00
2023-03-29T00:12:51.016Z,1842.00
2023-03-29T00:13:51.024Z,1838.00
2023-03-29T00:14:51.047Z,1837.00
2023-03-29T00:15:51.038Z,1834.00
2023-03-29T00:16:51.169Z,1838.00
2023-03-29T00:17:51.088Z,1836.00
2023-03-29T00:18:51.135Z,1835.00
2023-03-29T00:19:51.072Z,1836.00
2023-03-29T00:20:51.078Z,1837.00
2023-03-29T00:21:51.096Z,1835.00
2023-03-29T00:22:51.092Z,1830.00
2023-03-29T00:23:51.153Z,1826.00
2023-03-29T00:24:51.113Z,1827.00
2023-03-29T00:25:51.157Z,1823.00
2023-03-29T00:26:51.158Z,1817.00
2023-03-29T00:27:51.173Z,1809.00
2023-03-29T00:28:51.166Z,1807.00
2023-03-29T00:29:51.162Z,1805.00
2023-03-29T00:30:51.166Z,1807.00
2023-03-29T00:31:51.341Z,1807.00
2023-03-29T00:32:51.393Z,1806.00
2023-03-29T00:33:51.201Z,1799.00
2023-03-29T00:34:51.223Z,1796.00
2023-03-29T00:35:51.267Z,1796.00
2023-03-29T00:36:51.240Z,1803.00
2023-03-29T00:37:51.240Z,1804.00
2023-03-29T00:38:51.249Z,1803.00
2023-03-29T00:39:51.263Z,1805.00
2023-03-29T00:40:51.287Z,1806.00
2023-03-29T00:41:51.311Z,1805.00
2023-03-29T00:42:51.292Z,1805.00
2023-03-29T00:43:51.320Z,1807.00
2023-03-29T00:44:51.315Z,1805.00
2023-03-29T00:45:51.402Z,1804.00
2023-03-29T00:46:51.504Z,1802.00
2023-03-29T00:47:51.452Z,1796.00
2023-03-29T00:48:51.371Z,1791.00
2023-03-29T00:49:51.426Z,1790.00
2023-03-29T00:50:51.397Z,1791.00
2023-03-29T00:51:51.410Z,1791.00
2023-03-29T00:52:51.418Z,1789.00
2023-03-29T00:53:51.424Z,1787.00
2023-03-29T00:54:51.560Z,1787.00
2023-03-29T00:55:51.457Z,1787.00
2023-03-29T00:56:51.539Z,1787.00
2023-03-29T00:57:52.298Z,1783.00
2023-03-29T00:58:51.488Z,1781.00
2023-03-29T00:59:51.505Z,1779.00
2023-03-29T01:00:51.498Z,1779.00
2023-03-29T01:01:51.583Z,1777.00
2023-03-29T01:02:51.654Z,1779.00
2023-03-29T01:03:51.596Z,1780.00
2023-03-29T01:04:51.556Z,1774.00
2023-03-29T01:05:51.548Z,1771.00
2023-03-29T01:06:51.587Z,1772.00
2023-03-29T01:07:51.575Z,1772.00
2023-03-29T01:08:51.589Z,1773.00
2023-03-29T01:09:51.590Z,1772.00
2023-03-29T01:10:51.612Z,1770.00
2023-03-29T01:11:51.626Z,1771.00
2023-03-29T01:12:51.628Z,1770.00
2023-03-29T01:13:51.661Z,1767.00
2023-03-29T01:14:51.647Z,1766.00
2023-03-29T01:15:51.671Z,1763.00
2023-03-29T01:16:52.418Z,1765.00
2023-03-29T01:17:51.712Z,1766.00
2023-03-29T01:18:51.702Z,1763.00
2023-03-29T01:19:52.264Z,1760.00
2023-03-29T01:20:51.718Z,1755.00
2023-03-29T01:21:51.758Z,1754.00
2023-03-29T01:22:52.267Z,1756.00
2023-03-29T01:23:51.766Z,1755.00
2023-03-29T01:24:51.780Z,1754.00
2023-03-29T01:25:51.792Z,1751.00
2023-03-29T01:26:51.818Z,1749.00
2023-03-29T01:27:51.881Z,1748.00
2023-03-29T01:28:51.823Z,1750.00
2023-03-29T01:29:51.841Z,1747.00
2023-03-29T01:30:51.849Z,1746.00
2023-03-29T01:31:51.906Z,1745.00
2023-03-29T01:32:51.931Z,1746.00
2023-03-29T01:33:51.893Z,1745.00
2023-03-29T01:34:51.891Z,1746.00
2023-03-29T01:35:51.935Z,1746.00
2023-03-29T01:36:51.918Z,1744.00
2023-03-29T01:37:51.934Z,1741.00
2023-03-29T01:38:51.950Z,1739.00
2023-03-29T01:39:51.969Z,1738.00
2023-03-29T01:40:51.975Z,1737.00
2023-03-29T01:41:51.990Z,1734.00
2023-03-29T01:42:52.006Z,1730.00
2023-03-29T01:43:52.027Z,1729.00
2023-03-29T01:44:52.029Z,1724.00
2023-03-29T01:45:52.070Z,1725.00
2023-03-29T01:46:52.059Z,1723.00
2023-03-29T01:47:52.161Z,1721.00
2023-03-29T01:48:52.103Z,1717.00
2023-03-29T01:49:52.099Z,1715.00
2023-03-29T01:50:52.109Z,1713.00
2023-03-29T01:51:52.778Z,1717.00
2023-03-29T01:52:52.145Z,1716.00
2023-03-29T01:53:52.784Z,1711.00
2023-03-29T01:54:52.167Z,1706.00
2023-03-29T01:55:52.188Z,1707.00
2023-03-29T01:56:52.346Z,1706.00
2023-03-29T01:57:52.229Z,1702.00
2023-03-29T01:58:52.244Z,1700.00
2023-03-29T01:59:52.259Z,1698.00
2023-03-29T02:00:52.288Z,1696.00
2023-03-29T02:01:52.435Z,1693.00
2023-03-29T02:02:52.412Z,1688.00
2023-03-29T02:03:52.372Z,1683.00
2023-03-29T02:04:52.357Z,1676.00
2023-03-29T02:05:52.379Z,1676.00
2023-03-29T02:06:53.349Z,1672.00
2023-03-29T02:07:52.415Z,1671.00
2023-03-29T02:08:52.458Z,1669.00
2023-03-29T02:09:52.494Z,1669.00
2023-03-29T02:10:52.469Z,1667.00
2023-03-29T02:11:52.576Z,1664.00
2023-03-29T02:12:52.527Z,1661.00
2023-03-29T02:13:52.604Z,1656.00
2023-03-29T02:14:52.555Z,1653.00
2023-03-29T02:15:52.622Z,1651.00
2023-03-29T02:16:52.602Z,1654.00
2023-03-29T02:17:52.726Z,1653.00
2023-03-29T02:18:52.625Z,1655.00
2023-03-29T02:19:52.647Z,1658.00
2023-03-29T02:20:52.650Z,1654.00
2023-03-29T02:21:52.673Z,1650.00
2023-03-29T02:22:52.693Z,1649.00
2023-03-29T02:23:52.705Z,1651.00
2023-03-29T02:24:52.719Z,1651.00
2023-03-29T02:25:52.733Z,1652.00
2023-03-29T02:26:53.293Z,1647.00
2023-03-29T02:27:52.778Z,1644.00
2023-03-29T02:28:52.794Z,1644.00
2023-03-29T02:29:53.789Z,1642.00
2023-03-29T02:30:52.848Z,1637.00
2023-03-29T02:31:52.852Z,1640.00
2023-03-29T02:32:52.871Z,1640.00
2023-03-29T02:33:52.882Z,1638.00
2023-03-29T02:34:52.893Z,1635.00
2023-03-29T02:35:52.950Z,1633.00
2023-03-29T02:36:52.944Z,1631.00
2023-03-29T02:37:53.785Z,1631.00
2023-03-29T02:38:52.981Z,1629.00
2023-03-29T02:39:52.992Z,1630.00
2023-03-29T02:40:53.005Z,1632.00
2023-03-29T02:41:53.016Z,1633.00
2023-03-29T02:42:53.035Z,1627.00
2023-03-29T02:43:53.046Z,1622.00
2023-03-29T02:44:53.061Z,1618.00
2023-03-29T02:45:53.065Z,1616.00
2023-03-29T02:46:53.126Z,1618.00
2023-03-29T02:47:53.191Z,1610.00
2023-03-29T02:48:53.135Z,1610.00
2023-03-29T02:49:53.210Z,1612.00
2023-03-29T02:50:53.176Z,1613.00
2023-03-29T02:51:53.192Z,1612.00
2023-03-29T02:52:53.209Z,1607.00
2023-03-29T02:53:53.243Z,1599.00
2023-03-29T02:54:53.245Z,1598.00
2023-03-29T02:55:53.272Z,1601.00
2023-03-29T02:56:53.353Z,1598.00
2023-03-29T02:57:53.310Z,1598.00
2023-03-29T02:58:53.347Z,1603.00
2023-03-29T02:59:53.341Z,1605.00
2023-03-29T03:00:53.370Z,1605.00
2023-03-29T03:01:53.449Z,1605.00
2023-03-29T03:02:53.471Z,1600.00
2023-03-29T03:03:53.578Z,1596.00
2023-03-29T03:04:53.457Z,1592.00
2023-03-29T03:05:53.481Z,1589.00
2023-03-29T03:06:53.519Z,1583.00
2023-03-29T03:07:53.534Z,1584.00
2023-03-29T03:08:53.564Z,1584.00
2023-03-29T03:09:53.596Z,1585.00
2023-03-29T03:10:53.602Z,1581.00
2023-03-29T03:11:53.627Z,1580.00
2023-03-29T03:12:53.659Z,1577.00
2023-03-29T03:13:53.673Z,1579.00
2023-03-29T03:14:54.298Z,1577.00
2023-03-29T03:15:53.738Z,1575.00
2023-03-29T03:16:53.733Z,1575.00
2023-03-29T03:17:53.838Z,1575.00
2023-03-29T03:18:53.780Z,1572.00
2023-03-29T03:19:53.793Z,1571.00
2023-03-29T03:20:53.802Z,1569.00
2023-03-29T03:21:53.832Z,1566.00
2023-03-29T03:22:53.853Z,1565.00
2023-03-29T03:23:53.859Z,1561.00
2023-03-29T03:24:53.869Z,1559.00
2023-03-29T03:25:53.896Z,1556.00
2023-03-29T03:26:53.927Z,1554.00
2023-03-29T03:27:53.931Z,1553.00
2023-03-29T03:28:53.963Z,1551.00
2023-03-29T03:29:53.977Z,1550.00
2023-03-29T03:30:53.992Z,1547.00
2023-03-29T03:31:54.429Z,1544.00
2023-03-29T03:32:54.042Z,1540.00
2023-03-29T03:33:54.056Z,1537.00
2023-03-29T03:34:54.076Z,1535.00
2023-03-29T03:35:54.122Z,1536.00
2023-03-29T03:36:54.105Z,1535.00
2023-03-29T03:37:54.138Z,1535.00
2023-03-29T03:38:54.156Z,1536.00
2023-03-29T03:39:54.176Z,1537.00
2023-03-29T03:40:54.217Z,1539.00
2023-03-29T03:41:54.227Z,1539.00
2023-03-29T03:42:54.239Z,1539.00
2023-03-29T03:43:54.271Z,1540.00
2023-03-29T03:44:54.291Z,1536.00
2023-03-29T03:45:54.332Z,1538.00
2023-03-29T03:46:54.316Z,1535.00
2023-03-29T03:47:54.366Z,1533.00
2023-03-29T03:48:54.361Z,1532.00
2023-03-29T03:49:54.380Z,1532.00
2023-03-29T03:50:54.414Z,1529.00
2023-03-29T03:51:54.440Z,1529.00
2023-03-29T03:52:54.479Z,1529.00
2023-03-29T03:53:54.507Z,1528.00
2023-03-29T03:54:54.531Z,1526.00
2023-03-29T03:55:55.309Z,1524.00
2023-03-29T03:56:54.631Z,1525.00
2023-03-29T03:57:54.634Z,1524.00
2023-03-29T03:58:54.656Z,1527.00
2023-03-29T03:59:54.689Z,1523.00
2023-03-29T04:00:54.713Z,1520.00
2023-03-29T04:01:54.805Z,1520.00
2023-03-29T04:02:54.806Z,1520.00
2023-03-29T04:03:54.867Z,1516.00
2023-03-29T04:04:54.815Z,1516.00
2023-03-29T04:05:54.855Z,1515.00
2023-03-29T04:06:54.878Z,1515.00
2023-03-29T04:07:54.908Z,1517.00
2023-03-29T04:08:54.950Z,1517.00
2023-03-29T04:09:54.960Z,1516.00
2023-03-29T04:10:55.004Z,1515.00
2023-03-29T04:11:55.034Z,1518.00
2023-03-29T04:12:55.067Z,1516.00
2023-03-29T04:13:55.096Z,1515.00
2023-03-29T04:14:55.131Z,1514.00
2023-03-29T04:15:55.236Z,1508.00
2023-03-29T04:16:55.196Z,1507.00
2023-03-29T04:17:55.315Z,1506.00
2023-03-29T04:18:55.258Z,1505.00
2023-03-29T04:19:55.274Z,1510.00
2023-03-29T04:20:55.314Z,1506.00
2023-03-29T04:21:55.340Z,1505.00
2023-03-29T04:22:55.821Z,1503.00
2023-03-29T04:23:55.469Z,1498.00
2023-03-29T04:24:55.416Z,1496.00
2023-03-29T04:25:55.435Z,1495.00
2023-03-29T04:26:55.462Z,1494.00
2023-03-29T04:27:55.491Z,1492.00
2023-03-29T04:28:55.524Z,1492.00
2023-03-29T04:29:55.551Z,1491.00
2023-03-29T04:30:55.595Z,1487.00
2023-03-29T04:31:55.597Z,1482.00
2023-03-29T04:32:56.442Z,1482.00
2023-03-29T04:33:56.749Z,1481.00
2023-03-29T04:34:55.665Z,1480.00
2023-03-29T04:35:55.697Z,1478.00
2023-03-29T04:36:55.709Z,1474.00
2023-03-29T04:37:55.707Z,1472.00
2023-03-29T04:38:56.333Z,1472.00
2023-03-29T04:39:55.718Z,1469.00
2023-03-29T04:40:55.723Z,1469.00
2023-03-29T04:41:55.766Z,1467.00
2023-03-29T04:42:55.761Z,1466.00
2023-03-29T04:43:55.774Z,1465.00
2023-03-29T04:44:55.809Z,1464.00
2023-03-29T04:45:55.890Z,1463.00
2023-03-29T04:46:55.795Z,1462.00
2023-03-29T04:47:55.822Z,1459.00
2023-03-29T04:48:55.821Z,1459.00
2023-03-29T04:49:55.832Z,1460.00
2023-03-29T04:50:55.850Z,1457.00
2023-03-29T04:51:55.863Z,1454.00
2023-03-29T04:52:55.878Z,1451.00
2023-03-29T04:53:55.883Z,1449.00
2023-03-29T04:54:55.903Z,1448.00
2023-03-29T04:55:55.916Z,1447.00
2023-03-29T04:56:56.026Z,1446.00
2023-03-29T04:57:55.935Z,1445.00
2023-03-29T04:58:55.945Z,1443.00
2023-03-29T04:59:55.959Z,1440.00
2023-03-29T05:00:55.973Z,1439.00
2023-03-29T05:01:56.001Z,1440.00
2023-03-29T05:02:56.081Z,1437.00
2023-03-29T05:03:56.122Z,1437.00
2023-03-29T05:04:56.014Z,1438.00
2023-03-29T05:05:56.030Z,1442.00
2023-03-29T05:06:56.039Z,1447.00
2023-03-29T05:07:56.086Z,1443.00
2023-03-29T05:08:56.077Z,1440.00
2023-03-29T05:09:56.084Z,1438.00
2023-03-29T05:10:56.345Z,1439.00
2023-03-29T05:11:56.113Z,1436.00
2023-03-29T05:12:56.155Z,1436.00
2023-03-29T05:13:56.152Z,1435.00
2023-03-29T05:14:56.171Z,1433.00
2023-03-29T05:15:56.172Z,1429.00
2023-03-29T05:16:56.183Z,1422.00
2023-03-29T05:17:56.256Z,1422.00
2023-03-29T05:18:56.194Z,1422.00
2023-03-29T05:19:56.272Z,1419.00
2023-03-29T05:20:56.229Z,1420.00
2023-03-29T05:21:56.237Z,1432.00
2023-03-29T05:22:56.254Z,1429.00
2023-03-29T05:23:56.265Z,1433.00
2023-03-29T05:24:56.268Z,1445.00
2023-03-29T05:25:56.292Z,1454.00
2023-03-29T05:26:56.322Z,1463.00
2023-03-29T05:27:56.306Z,1491.00
2023-03-29T05:28:56.319Z,1539.00
2023-03-29T05:29:56.349Z,1562.00
2023-03-29T05:30:56.328Z,1621.00
2023-03-29T05:31:56.394Z,1622.00
2023-03-29T05:32:56.362Z,1630.00
2023-03-29T05:33:56.342Z,1636.00
2023-03-29T05:34:56.366Z,1637.00
2023-03-29T05:35:56.394Z,1650.00
2023-03-29T05:36:56.361Z,1678.00
2023-03-29T05:37:56.417Z,1710.00
2023-03-29T05:38:56.362Z,1752.00
2023-03-29T05:40:06.107Z,1774.00
2023-03-29T05:40:57.361Z,1791.00
2023-03-29T05:41:56.360Z,1811.00
2023-03-29T05:42:56.362Z,1827.00
2023-03-29T05:43:56.369Z,1873.00
2023-03-29T05:44:56.376Z,1888.00
2023-03-29T05:45:56.482Z,1925.00
2023-03-29T05:46:56.367Z,1969.00
2023-03-29T05:47:56.417Z,1989.00
2023-03-29T05:48:56.357Z,2060.00
2023-03-29T05:49:56.354Z,2044.00
2023-03-29T05:50:56.367Z,2059.00
2023-03-29T05:51:56.387Z,2152.00
2023-03-29T05:52:56.402Z,2172.00
2023-03-29T05:53:56.446Z,2188.00
2023-03-29T05:54:56.581Z,2200.00
2023-03-29T05:55:56.544Z,2219.00
2023-03-29T05:56:56.555Z,2248.00
2023-03-29T05:57:56.576Z,2275.00
2023-03-29T05:58:56.597Z,2304.00
2023-03-29T05:59:56.629Z,2340.00
2023-03-29T06:00:56.703Z,2361.00
2023-03-29T06:01:56.740Z,2397.00
2023-03-29T06:03:06.499Z,2421.00
2023-03-29T06:03:57.787Z,2447.00
2023-03-29T06:04:56.842Z,2467.00
2023-03-29T06:05:56.670Z,2490.00
2023-03-29T06:06:56.642Z,2524.00
2023-03-29T06:07:56.757Z,2551.00
2023-03-29T06:08:56.622Z,2577.00
2023-03-29T06:09:56.617Z,2603.00
2023-03-29T06:10:56.601Z,2624.00
2023-03-29T06:11:57.284Z,2639.00
2023-03-29T06:12:56.588Z,2667.00
2023-03-29T06:13:57.582Z,2702.00
2023-03-29T06:14:56.561Z,2742.00
2023-03-29T06:15:56.559Z,2773.00
2023-03-29T06:16:56.607Z,2794.00
2023-03-29T06:17:57.570Z,2809.00
2023-03-29T06:18:56.522Z,2823.00
2023-03-29T06:19:56.508Z,2842.00
2023-03-29T06:20:56.501Z,2863.00
2023-03-29T06:21:56.490Z,2916.00
2023-03-29T06:22:56.468Z,2966.00
2023-03-29T06:23:56.461Z,2351.00
2023-03-29T06:24:56.452Z,1572.00
2023-03-29T06:25:56.459Z,1518.00
2023-03-29T06:26:56.462Z,1606.00
2023-03-29T06:27:56.465Z,1676.00
2023-03-29T06:28:56.474Z,1734.00
2023-03-29T06:29:56.471Z,1822.00
2023-03-29T06:30:56.693Z,1818.00
2023-03-29T06:31:56.478Z,1839.00
2023-03-29T06:32:56.493Z,1894.00
2023-03-29T06:33:56.493Z,1888.00
2023-03-29T06:34:56.480Z,1902.00
2023-03-29T06:35:57.416Z,1913.00
2023-03-29T06:36:56.550Z,2005.00
2023-03-29T06:37:56.721Z,2013.00
2023-03-29T06:38:56.681Z,2030.00
2023-03-29T06:39:56.734Z,2027.00
2023-03-29T06:40:56.793Z,2030.00
2023-03-29T06:41:56.831Z,2053.00
2023-03-29T06:42:56.885Z,2148.00
2023-03-29T06:43:56.883Z,2180.00
2023-03-29T06:44:56.921Z,2187.00
2023-03-29T06:45:56.973Z,2206.00
2023-03-29T06:46:56.984Z,2235.00
2023-03-29T06:47:57.001Z,2272.00
2023-03-29T06:48:57.011Z,2291.00
2023-03-29T06:49:57.023Z,2315.00
2023-03-29T06:50:57.043Z,2340.00
2023-03-29T06:51:57.055Z,2362.00
2023-03-29T06:52:57.062Z,2420.00
2023-03-29T06:53:57.068Z,2439.00
2023-03-29T06:54:57.061Z,2454.00
2023-03-29T06:55:57.077Z,2481.00
2023-03-29T06:56:57.085Z,2508.00
2023-03-29T06:57:57.068Z,2529.00
2023-03-29T06:58:57.079Z,2552.00
2023-03-29T06:59:57.072Z,2587.00
2023-03-29T07:00:57.072Z,2623.00
2023-03-29T07:01:57.211Z,2643.00
2023-03-29T07:02:57.184Z,2658.00
2023-03-29T07:03:57.098Z,2716.00
2023-03-29T07:04:57.064Z,2733.00
2023-03-29T07:05:57.879Z,2750.00
2023-03-29T07:06:57.079Z,2768.00
2023-03-29T07:07:57.201Z,2786.00
2023-03-29T07:08:57.882Z,2812.00
2023-03-29T07:09:57.152Z,2836.00
2023-03-29T07:10:57.154Z,2862.00
2023-03-29T07:11:57.192Z,2885.00
2023-03-29T07:12:57.232Z,2904.00
2023-03-29T07:13:57.268Z,2942.00
2023-03-29T07:14:57.295Z,2962.00
2023-03-29T07:15:57.314Z,3012.00
2023-03-29T07:16:57.510Z,3070.00
2023-03-29T07:17:57.437Z,3084.00
2023-03-29T07:18:57.348Z,3073.00
2023-03-29T07:19:57.343Z,3068.00
2023-03-29T07:20:57.408Z,3044.00
2023-03-29T07:21:57.349Z,3032.00
2023-03-29T07:22:57.349Z,3032.00
2023-03-29T07:23:57.365Z,3030.00
2023-03-29T07:24:57.372Z,3023.00
2023-03-29T07:25:57.388Z,3009.00
2023-03-29T07:27:04.077Z,2990.00
2023-03-29T07:27:58.446Z,2970.00
2023-03-29T07:28:57.400Z,2963.00
2023-03-29T07:29:57.462Z,2958.00
2023-03-29T07:30:57.401Z,2952.00
2023-03-29T07:31:57.397Z,2944.00
2023-03-29T07:32:57.503Z,2939.00
2023-03-29T07:33:57.495Z,2929.00
2023-03-29T07:34:57.465Z,2928.00
2023-03-29T07:35:57.443Z,2913.00
2023-03-29T07:36:57.894Z,2900.00
2023-03-29T07:37:57.374Z,2893.00
2023-03-29T07:38:57.376Z,2892.00
2023-03-29T07:39:57.375Z,2888.00
2023-03-29T07:40:57.375Z,2884.00
2023-03-29T07:41:57.380Z,2876.00
2023-03-29T07:42:57.442Z,2871.00
2023-03-29T07:43:57.461Z,2864.00
2023-03-29T07:44:57.514Z,2856.00
2023-03-29T07:45:57.598Z,2837.00
2023-03-29T07:46:57.627Z,2832.00
2023-03-29T07:47:57.825Z,2832.00
2023-03-29T07:48:57.744Z,2829.00
2023-03-29T07:49:57.792Z,2826.00
2023-03-29T07:50:57.858Z,2819.00
2023-03-29T07:51:57.923Z,2811.00
2023-03-29T07:52:57.976Z,2800.00
2023-03-29T07:53:58.053Z,2799.00
2023-03-29T07:54:58.114Z,2796.00
2023-03-29T07:55:58.197Z,2792.00
2023-03-29T07:56:58.392Z,2783.00
2023-03-29T07:57:58.309Z,2769.00
2023-03-29T07:58:58.454Z,2762.00
2023-03-29T07:59:58.452Z,2753.00
2023-03-29T08:00:58.561Z,2746.00
2023-03-29T08:01:58.585Z,2739.00
2023-03-29T08:02:58.693Z,2729.00
2023-03-29T08:03:58.853Z,2716.00
2023-03-29T08:04:58.899Z,2707.00
2023-03-29T08:05:58.872Z,2701.00
2023-03-29T08:06:58.952Z,2703.00
2023-03-29T08:07:59.024Z,2704.00
2023-03-29T08:08:59.081Z,2695.00
2023-03-29T08:09:59.146Z,2689.00
2023-03-29T08:10:59.228Z,2686.00
2023-03-29T08:11:59.273Z,2685.00
2023-03-29T08:12:59.350Z,2687.00
2023-03-29T08:13:59.430Z,2688.00
2023-03-29T08:14:59.492Z,2679.00
2023-03-29T08:15:59.575Z,2676.00
2023-03-29T08:16:59.651Z,2676.00
2023-03-29T08:17:59.938Z,2673.00
2023-03-29T08:18:59.777Z,2672.00
2023-03-29T08:19:59.840Z,2668.00
2023-03-29T08:21:00.011Z,2670.00
2023-03-29T08:21:59.995Z,2671.00
2023-03-29T08:23:00.040Z,2660.00
2023-03-29T08:24:00.132Z,2648.00
2023-03-29T08:25:00.172Z,2645.00
2023-03-29T08:26:00.182Z,2635.00
2023-03-29T08:27:00.218Z,2629.00
2023-03-29T08:28:00.284Z,2626.00
2023-03-29T08:29:00.341Z,2623.00
2023-03-29T08:30:00.394Z,2610.00
2023-03-29T08:31:00.680Z,2600.00
2023-03-29T08:32:00.520Z,2597.00
2023-03-29T08:33:00.594Z,2598.00
2023-03-29T08:34:00.584Z,2593.00
2023-03-29T08:35:00.598Z,2589.00
2023-03-29T08:36:00.649Z,2583.00
2023-03-29T08:37:00.711Z,2579.00
2023-03-29T08:38:00.639Z,2580.00
2023-03-29T08:39:00.647Z,2579.00
2023-03-29T08:40:00.700Z,2575.00
2023-03-29T08:41:00.913Z,2569.00
2023-03-29T08:42:00.753Z,2566.00
2023-03-29T08:43:00.742Z,2566.00
2023-03-29T08:44:00.753Z,2559.00
2023-03-29T08:45:01.833Z,2564.00
2023-03-29T08:46:00.855Z,2564.00
2023-03-29T08:47:00.839Z,2561.00
2023-03-29T08:48:00.855Z,2550.00
2023-03-29T08:49:00.826Z,2546.00
2023-03-29T08:50:00.846Z,2537.00
2023-03-29T08:51:01.032Z,2519.00
2023-03-29T08:52:01.835Z,2517.00
2023-03-29T08:53:00.898Z,2519.00
2023-03-29T08:54:00.905Z,2520.00
2023-03-29T08:55:00.935Z,2515.00
2023-03-29T08:56:00.944Z,2508.00
2023-03-29T08:57:00.989Z,2501.00
2023-03-29T08:58:00.997Z,2492.00
2023-03-29T08:59:00.962Z,2492.00
2023-03-29T09:00:01.209Z,2489.00
2023-03-29T09:01:01.360Z,2491.00
2023-03-29T09:02:01.066Z,2487.00
2023-03-29T09:03:01.092Z,2479.00
2023-03-29T09:04:01.064Z,2471.00
2023-03-29T09:05:01.921Z,2469.00
2023-03-29T09:06:00.988Z,2468.00
2023-03-29T09:07:00.993Z,2466.00
2023-03-29T09:08:01.000Z,2460.00
2023-03-29T09:09:00.991Z,2458.00
2023-03-29T09:10:00.986Z,2458.00
2023-03-29T09:11:01.149Z,2450.00
2023-03-29T09:12:01.002Z,2441.00
2023-03-29T09:13:01.032Z,2435.00
2023-03-29T09:14:01.046Z,2431.00
2023-03-29T09:15:01.206Z,2427.00
2023-03-29T09:16:01.050Z,2420.00
2023-03-29T09:17:01.015Z,2415.00
2023-03-29T09:18:01.469Z,2415.00
2023-03-29T09:19:01.029Z,2408.00
2023-03-29T09:20:01.037Z,2405.00
2023-03-29T09:21:01.343Z,2402.00
2023-03-29T09:22:01.046Z,2401.00
2023-03-29T09:23:01.055Z,2403.00
2023-03-29T09:24:01.063Z,2403.00
2023-03-29T09:25:01.098Z,2403.00
2023-03-29T09:26:01.100Z,2404.00
2023-03-29T09:27:01.101Z,2399.00
2023-03-29T09:28:01.125Z,2392.00
2023-03-29T09:29:01.128Z,2391.00
2023-03-29T09:30:01.175Z,2390.00
2023-03-29T09:31:01.265Z,2390.00
2023-03-29T09:32:01.190Z,2390.00
2023-03-29T09:33:01.179Z,2388.00
2023-03-29T09:34:01.135Z,2382.00
2023-03-29T09:35:01.209Z,2381.00
2023-03-29T09:36:01.905Z,2377.00
2023-03-29T09:37:01.167Z,2375.00
2023-03-29T09:38:01.196Z,2376.00
2023-03-29T09:39:01.198Z,2370.00
2023-03-29T09:40:02.070Z,2369.00
2023-03-29T09:41:01.653Z,2367.00
2023-03-29T09:42:01.401Z,2364.00
2023-03-29T09:43:01.442Z,2365.00
2023-03-29T09:44:01.478Z,2360.00
2023-03-29T09:45:01.432Z,2359.00
2023-03-29T09:46:01.531Z,2358.00
2023-03-29T09:47:01.445Z,2349.00
2023-03-29T09:48:01.493Z,2347.00
2023-03-29T09:49:01.514Z,2345.00
2023-03-29T09:50:01.539Z,2342.00
2023-03-29T09:51:01.615Z,2339.00
2023-03-29T09:52:01.527Z,2336.00
2023-03-29T09:53:01.550Z,2330.00
2023-03-29T09:54:01.529Z,2329.00
2023-03-29T09:55:01.524Z,2336.00
2023-03-29T09:56:01.554Z,2334.00
2023-03-29T09:57:01.634Z,2326.00
2023-03-29T09:58:01.583Z,2320.00
2023-03-29T09:59:01.569Z,2318.00
2023-03-29T10:00:02.443Z,2321.00
2023-03-29T10:01:01.802Z,2320.00
2023-03-29T10:02:01.594Z,2316.00
2023-03-29T10:03:01.637Z,2308.00
2023-03-29T10:04:01.641Z,2309.00
2023-03-29T10:05:01.717Z,2307.00
2023-03-29T10:06:01.659Z,2306.00
2023-03-29T10:07:01.648Z,2303.00
2023-03-29T10:08:01.651Z,2306.00
2023-03-29T10:09:01.660Z,2307.00
2023-03-29T10:10:01.667Z,2304.00
2023-03-29T10:11:01.900Z,2301.00
2023-03-29T10:12:01.690Z,2301.00
2023-03-29T10:13:01.699Z,2300.00
2023-03-29T10:14:01.701Z,2300.00
2023-03-29T10:15:01.778Z,2299.00
2023-03-29T10:16:01.795Z,2301.00
2023-03-29T10:17:01.816Z,2294.00
2023-03-29T10:18:01.810Z,2284.00
2023-03-29T10:19:01.769Z,2283.00
2023-03-29T10:20:03.970Z,2282.00
2023-03-29T10:21:02.210Z,2283.00
2023-03-29T10:22:02.000Z,2285.00
2023-03-29T10:23:02.023Z,2284.00
2023-03-29T10:24:02.070Z,2273.00
2023-03-29T10:25:02.053Z,2269.00
2023-03-29T10:26:03.006Z,2268.00
2023-03-29T10:27:02.088Z,2267.00
2023-03-29T10:28:02.092Z,2267.00
2023-03-29T10:29:02.110Z,2265.00
2023-03-29T10:30:02.119Z,2261.00
2023-03-29T10:31:02.406Z,2252.00
2023-03-29T10:32:02.241Z,2241.00
2023-03-29T10:33:02.190Z,2232.00
2023-03-29T10:34:02.162Z,2225.00
2023-03-29T10:35:02.177Z,2223.00
2023-03-29T10:36:02.201Z,2221.00
2023-03-29T10:37:02.203Z,2215.00
2023-03-29T10:38:02.200Z,2210.00
2023-03-29T10:39:04.302Z,2208.00
2023-03-29T10:40:02.220Z,2206.00
2023-03-29T10:41:02.372Z,2200.00
2023-03-29T10:42:02.297Z,2202.00
2023-03-29T10:43:02.202Z,2204.00
2023-03-29T10:44:02.209Z,2208.00
2023-03-29T10:45:02.209Z,2205.00
2023-03-29T10:46:02.226Z,2203.00
2023-03-29T10:47:02.217Z,2199.00
2023-03-29T10:48:02.288Z,2197.00
2023-03-29T10:49:02.218Z,2191.00
2023-03-29T10:50:02.226Z,2187.00
2023-03-29T10:51:02.432Z,2184.00
2023-03-29T10:52:02.226Z,2181.00
2023-03-29T10:53:02.219Z,2182.00
2023-03-29T10:54:02.222Z,2179.00
2023-03-29T10:55:02.226Z,2181.00
2023-03-29T10:56:02.226Z,2185.00
2023-03-29T10:57:02.252Z,2184.00
2023-03-29T10:58:02.237Z,2174.00
2023-03-29T10:59:02.232Z,2159.00
2023-03-29T11:00:02.233Z,2149.00
2023-03-29T11:01:02.419Z,2151.00
2023-03-29T11:02:02.404Z,2157.00
2023-03-29T11:03:02.345Z,2155.00
2023-03-29T11:04:02.434Z,2153.00
2023-03-29T11:05:02.273Z,2151.00
2023-03-29T11:06:02.259Z,2152.00
2023-03-29T11:07:02.283Z,2152.00
2023-03-29T11:08:02.268Z,2145.00
2023-03-29T11:09:02.344Z,2138.00
2023-03-29T11:10:02.341Z,2132.00
2023-03-29T11:11:02.562Z,2126.00
2023-03-29T11:12:15.151Z,2126.00
2023-03-29T11:13:03.307Z,2122.00
2023-03-29T11:14:02.308Z,2124.00
2023-03-29T11:15:02.313Z,2121.00
2023-03-29T11:16:02.328Z,2115.00
2023-03-29T11:17:02.317Z,2113.00
2023-03-29T11:18:02.339Z,2116.00
2023-03-29T11:19:02.324Z,2113.00
2023-03-29T11:20:04.919Z,2111.00
2023-03-29T11:21:02.395Z,2114.00
2023-03-29T11:22:02.335Z,2114.00
2023-03-29T11:23:02.325Z,2108.00
2023-03-29T11:24:02.319Z,2104.00
2023-03-29T11:25:02.337Z,2099.00
2023-03-29T11:26:02.329Z,2093.00
2023-03-29T11:27:02.338Z,2089.00
2023-03-29T11:28:02.341Z,2089.00
2023-03-29T11:29:02.357Z,2083.00
2023-03-29T11:30:02.423Z,2077.00
2023-03-29T11:31:02.736Z,2074.00
2023-03-29T11:32:02.398Z,2067.00
2023-03-29T11:33:02.379Z,2068.00
2023-03-29T11:34:02.366Z,2070.00
2023-03-29T11:35:02.395Z,2075.00
2023-03-29T11:36:02.458Z,2074.00
2023-03-29T11:37:02.384Z,2071.00
2023-03-29T11:38:02.378Z,2067.00
2023-03-29T11:39:02.384Z,2070.00
2023-03-29T11:40:02.387Z,2070.00
2023-03-29T11:41:02.768Z,2065.00
2023-03-29T11:42:02.416Z,2063.00
2023-03-29T11:43:02.422Z,2068.00
2023-03-29T11:44:02.409Z,2068.00
2023-03-29T11:45:02.420Z,2065.00
2023-03-29T11:46:02.427Z,2065.00
2023-03-29T11:47:02.453Z,2064.00
2023-03-29T11:48:02.480Z,2060.00
2023-03-29T11:49:02.418Z,2059.00
2023-03-29T11:50:02.507Z,2056.00
2023-03-29T11:51:02.525Z,2050.00
2023-03-29T11:52:02.428Z,2047.00
2023-03-29T11:53:02.421Z,2041.00
2023-03-29T11:54:02.424Z,2035.00
2023-03-29T11:55:02.429Z,2039.00
2023-03-29T11:56:02.436Z,2035.00
2023-03-29T11:57:02.467Z,2027.00
2023-03-29T11:58:02.438Z,2017.00
2023-03-29T11:59:02.450Z,2009.00
2023-03-29T12:00:02.454Z,2004.00
2023-03-29T12:01:02.723Z,2003.00
2023-03-29T12:02:02.477Z,2002.00
2023-03-29T12:03:02.524Z,1996.00
2023-03-29T12:04:02.586Z,1987.00
2023-03-29T12:05:02.477Z,1976.00
2023-03-29T12:06:02.514Z,1974.00